Time;durP1;ratioP1;P1;durP2;ratioP2;P2;SDS_P1;SDS_P2;PMS_P1;PMS_P2;Temp;Humidity;BMP_temperature;BMP_pressure;BME280_temperature;BME280_humidity;BME280_pressure;Samples;Min_cycle;Max_cycle;Signal;HPM_P1;HPM_P2
2022/08/23 00:01:33;;;;;;;8.05;5.03;;;16.70;99.90;;;;;;5067886;28;20064;-72
2022/08/23 00:04:05;;;;;;;8.80;4.45;;;16.60;99.90;;;;;;5054021;28;20341;-72
2022/08/23 00:06:31;;;;;;;12.23;5.45;;;16.60;99.90;;;;;;5054253;28;20361;-72
2022/08/23 00:08:57;;;;;;;7.85;4.32;;;16.70;99.90;;;;;;5054218;28;20045;-72
2022/08/23 00:11:31;;;;;;;7.97;5.00;;;16.60;99.90;;;;;;5036606;28;20110;-72
2022/08/23 00:14:00;;;;;;;12.20;4.80;;;16.60;99.90;;;;;;5055107;28;20123;-71
2022/08/23 00:16:26;;;;;;;8.65;4.65;;;16.60;99.90;;;;;;5076019;28;20063;-72
2022/08/23 00:18:53;;;;;;;11.10;6.18;;;16.60;99.90;;;;;;5077610;28;20436;-72
2022/08/23 00:21:19;;;;;;;9.07;5.10;;;16.60;99.90;;;;;;5077273;28;20437;-72
2022/08/23 00:23:44;;;;;;;11.50;5.13;;;16.60;99.90;;;;;;5059936;28;20101;-72
2022/08/23 00:26:10;;;;;;;8.43;5.07;;;16.60;99.90;;;;;;5077618;28;20095;-72
2022/08/23 00:28:36;;;;;;;10.30;5.38;;;16.60;99.90;;;;;;5077701;28;20044;-72
2022/08/23 00:31:02;;;;;;;9.23;5.95;;;16.50;99.90;;;;;;5076409;28;20047;-71
2022/08/23 00:33:27;;;;;;;9.18;5.35;;;16.50;99.90;;;;;;5061840;28;20045;-71
2022/08/23 00:35:53;;;;;;;11.43;5.57;;;16.50;99.90;;;;;;5071427;28;20120;-72
2022/08/23 00:38:18;;;;;;;9.52;5.53;;;16.50;99.90;;;;;;5077051;28;20075;-72
2022/08/23 00:40:47;;;;;;;9.57;5.38;;;16.60;99.90;;;;;;5060255;28;20072;-72
2022/08/23 00:49:30;;;;;;;13.85;6.00;;;16.40;99.90;;;;;;4976301;28;20459;-72
2022/08/23 00:51:56;;;;;;;11.27;6.55;;;16.30;99.90;;;;;;5066684;28;20072;-72
2022/08/23 00:54:26;;;;;;;12.35;6.40;;;16.40;99.90;;;;;;5069592;28;20045;-72
2022/08/23 00:56:54;;;;;;;9.73;6.43;;;16.40;99.90;;;;;;5076833;28;20088;-72
2022/08/23 00:59:21;;;;;;;11.75;6.82;;;16.30;99.90;;;;;;5076900;28;20456;-72
2022/08/23 01:01:47;;;;;;;12.98;6.82;;;16.30;99.90;;;;;;5077004;28;20105;-72
2022/08/23 01:04:13;;;;;;;10.63;6.13;;;16.30;99.90;;;;;;5076992;28;20055;-72
2022/08/23 01:06:45;;;;;;;12.27;5.60;;;16.30;99.90;;;;;;5077702;28;20358;-71
2022/08/23 01:09:15;;;;;;;9.80;5.93;;;16.20;99.90;;;;;;5063291;28;20033;-72
2022/08/23 01:12:05;;;;;;;11.70;6.00;;;16.20;99.90;;;;;;5056998;28;20190;-72
2022/08/23 01:14:33;;;;;;;12.10;6.40;;;16.20;99.90;;;;;;5056865;28;20540;-71
2022/08/23 01:17:07;;;;;;;10.95;6.28;;;16.20;99.90;;;;;;5056750;28;20469;-72
2022/08/23 01:20:05;;;;;;;13.15;6.80;;;16.20;99.90;;;;;;5056555;28;20049;-71
2022/08/23 01:22:55;;;;;;;15.88;5.70;;;16.10;99.90;;;;;;5057784;28;20196;-72
2022/08/23 01:25:23;;;;;;;9.82;5.97;;;16.10;99.90;;;;;;5075658;28;20440;-71
2022/08/23 01:27:49;;;;;;;12.13;6.15;;;16.10;99.90;;;;;;5076408;28;20036;-71
2022/08/23 01:30:19;;;;;;;12.95;6.25;;;16.10;99.90;;;;;;5076739;28;20036;-72
2022/08/23 01:32:53;;;;;;;11.85;6.13;;;16.00;99.90;;;;;;5076489;28;20123;-72
2022/08/23 01:35:23;;;;;;;10.32;5.97;;;16.00;99.90;;;;;;5076648;28;20127;-72
2022/08/23 01:37:50;;;;;;;12.93;6.22;;;16.10;99.90;;;;;;5069512;28;20087;-71
2022/08/23 01:40:15;;;;;;;10.77;6.40;;;16.00;99.90;;;;;;5056054;28;20131;-72
2022/08/23 01:42:42;;;;;;;10.00;6.13;;;16.00;99.90;;;;;;5056514;28;20131;-72
2022/08/23 01:45:10;;;;;;;10.80;5.95;;;15.90;99.90;;;;;;5039061;28;20057;-71
2022/08/23 01:47:37;;;;;;;12.27;6.53;;;15.90;99.90;;;;;;5057303;28;20076;-71
2022/08/23 01:50:03;;;;;;;9.18;5.85;;;15.90;99.90;;;;;;5056120;28;20087;-71
2022/08/23 01:52:28;;;;;;;11.13;6.10;;;15.90;99.90;;;;;;5056053;28;20072;-72
2022/08/23 01:54:56;;;;;;;9.80;6.10;;;15.80;99.90;;;;;;5072468;28;20436;-71
2022/08/23 01:57:21;;;;;;;13.20;7.82;;;15.80;99.90;;;;;;5056364;28;20131;-71
2022/08/23 01:59:47;;;;;;;15.98;8.75;;;15.80;99.90;;;;;;5055789;28;20128;-72
2022/08/23 02:02:13;;;;;;;13.68;7.53;;;15.80;99.90;;;;;;5036601;28;20049;-72
2022/08/23 02:04:39;;;;;;;11.80;7.60;;;15.80;99.90;;;;;;5056048;28;20091;-72
2022/08/23 02:07:04;;;;;;;13.93;6.75;;;15.80;99.90;;;;;;5055795;28;20044;-71
2022/08/23 02:09:30;;;;;;;11.73;6.88;;;15.70;99.90;;;;;;5046933;28;20033;-71
2022/08/23 02:11:56;;;;;;;15.80;7.82;;;15.70;99.90;;;;;;5075502;28;20490;-72
2022/08/23 02:14:21;;;;;;;15.50;8.85;;;15.70;99.90;;;;;;5075768;28;20119;-72
2022/08/23 02:16:50;;;;;;;12.18;6.88;;;15.80;99.90;;;;;;5075593;28;20364;-72
2022/08/23 02:19:17;;;;;;;16.38;7.40;;;15.80;99.90;;;;;;5075531;28;20036;-71
2022/08/23 02:21:43;;;;;;;11.70;7.03;;;15.70;99.90;;;;;;5075010;28;20041;-72
2022/08/23 02:24:13;;;;;;;12.88;7.28;;;15.70;99.90;;;;;;5040828;28;20129;-72
2022/08/23 02:26:41;;;;;;;15.80;7.30;;;15.70;99.90;;;;;;5063969;28;20072;-72
2022/08/23 02:29:08;;;;;;;12.55;7.20;;;15.70;99.90;;;;;;5055462;28;20523;-72
2022/08/23 02:31:33;;;;;;;13.18;8.30;;;15.60;99.90;;;;;;5055585;28;20040;-72
2022/08/23 02:33:59;;;;;;;13.52;7.45;;;15.60;99.90;;;;;;5055473;28;20472;-71
2022/08/23 02:36:26;;;;;;;12.52;7.80;;;15.60;99.90;;;;;;5055063;28;20052;-72
2022/08/23 02:38:53;;;;;;;13.27;8.02;;;15.70;99.90;;;;;;5055199;28;20045;-71
2022/08/23 02:41:19;;;;;;;14.73;7.22;;;15.60;99.90;;;;;;5055204;28;20053;-71
2022/08/23 02:43:45;;;;;;;11.50;7.90;;;15.60;99.90;;;;;;5055077;28;20090;-71
2022/08/23 02:46:10;;;;;;;10.60;6.93;;;15.60;99.90;;;;;;5055445;28;20048;-71
2022/08/23 02:48:36;;;;;;;14.43;7.22;;;15.60;99.90;;;;;;5055173;28;20111;-72
2022/08/23 02:51:06;;;;;;;13.43;7.55;;;15.50;99.90;;;;;;5054900;28;20079;-72
2022/08/23 02:53:33;;;;;;;15.88;8.52;;;15.50;99.90;;;;;;5055039;28;20049;-72
2022/08/23 02:55:59;;;;;;;14.30;7.72;;;15.50;99.90;;;;;;5064330;28;20041;-72
2022/08/23 02:58:26;;;;;;;14.43;8.85;;;15.50;99.90;;;;;;5074962;28;20410;-72
2022/08/23 03:00:52;;;;;;;11.93;7.70;;;15.50;99.90;;;;;;5075228;28;20512;-71
2022/08/23 03:03:19;;;;;;;12.93;8.18;;;15.50;99.90;;;;;;5074716;28;20452;-72
2022/08/23 03:05:44;;;;;;;10.75;7.97;;;15.50;99.90;;;;;;5075063;28;20123;-71
2022/08/23 03:08:10;;;;;;;12.38;8.85;;;15.40;99.90;;;;;;5074857;28;20117;-72
2022/08/23 03:10:40;;;;;;;14.75;9.38;;;15.40;99.90;;;;;;5065990;28;20059;-71
2022/08/23 03:13:06;;;;;;;19.52;10.38;;;15.40;99.90;;;;;;5054994;28;20041;-71
2022/08/23 03:15:32;;;;;;;14.52;9.35;;;15.40;99.90;;;;;;5054763;28;20091;-71
2022/08/23 03:17:58;;;;;;;13.10;9.10;;;15.50;99.90;;;;;;5055009;28;20036;-71
2022/08/23 03:20:25;;;;;;;15.77;10.30;;;15.40;99.90;;;;;;5055024;28;20049;-71
2022/08/23 03:22:50;;;;;;;15.40;11.60;;;15.40;99.90;;;;;;5054593;28;20037;-72
2022/08/23 03:25:16;;;;;;;22.95;13.20;;;15.40;99.90;;;;;;5057597;28;20095;-71
2022/08/23 03:27:42;;;;;;;14.27;10.57;;;15.40;99.90;;;;;;5074789;28;20055;-71
2022/08/23 03:30:08;;;;;;;13.38;9.75;;;15.50;99.90;;;;;;5075156;28;20113;-72
2022/08/23 03:32:34;;;;;;;22.55;14.20;;;15.40;99.90;;;;;;5074094;28;20032;-71
2022/08/23 03:35:00;;;;;;;12.95;10.27;;;15.60;99.90;;;;;;5074983;28;20352;-71
2022/08/23 03:37:26;;;;;;;16.10;10.38;;;15.50;99.90;;;;;;5057623;28;20048;-71
2022/08/23 03:39:52;;;;;;;12.57;9.85;;;15.40;99.90;;;;;;5072168;28;20040;-71
2022/08/23 03:42:18;;;;;;;10.93;8.80;;;15.40;99.90;;;;;;5054415;28;20449;-72
2022/08/23 03:44:44;;;;;;;14.02;10.43;;;15.40;99.90;;;;;;5054856;28;20060;-71
2022/08/23 03:47:09;;;;;;;14.02;9.15;;;15.40;99.90;;;;;;5054586;28;20137;-71
2022/08/23 03:49:36;;;;;;;12.48;8.50;;;15.30;99.90;;;;;;5056468;28;20086;-71
2022/08/23 03:52:02;;;;;;;12.02;9.45;;;15.30;99.90;;;;;;5058093;28;20037;-71
2022/08/23 03:54:28;;;;;;;12.68;9.05;;;15.30;99.90;;;;;;5058659;28;20045;-71
2022/08/23 03:57:01;;;;;;;15.77;9.85;;;15.30;99.90;;;;;;5074466;28;20061;-71
2022/08/23 03:59:28;;;;;;;14.48;9.98;;;15.20;99.90;;;;;;5060756;28;20091;-71
2022/08/23 04:01:53;;;;;;;17.35;12.55;;;15.20;99.90;;;;;;5084146;28;20154;-70
2022/08/23 04:04:19;;;;;;;18.15;13.05;;;15.20;99.90;;;;;;5051040;28;20071;-71
2022/08/23 04:06:45;;;;;;;20.42;13.45;;;15.20;99.90;;;;;;5074684;28;20087;-71
2022/08/23 04:09:12;;;;;;;22.42;14.35;;;15.20;99.90;;;;;;5074598;28;20060;-71
2022/08/23 04:11:38;;;;;;;19.55;13.70;;;15.20;99.90;;;;;;5058318;28;20095;-71
2022/08/23 04:14:05;;;;;;;29.70;18.15;;;15.20;99.90;;;;;;5057771;28;20514;-71
2022/08/23 04:16:36;;;;;;;23.00;16.80;;;15.20;99.90;;;;;;5058290;28;20060;-72
2022/08/23 04:19:06;;;;;;;21.25;16.65;;;15.20;99.90;;;;;;5058061;28;20114;-71
2022/08/23 04:21:33;;;;;;;25.67;20.42;;;15.30;99.90;;;;;;5062625;28;20406;-71
2022/08/23 04:23:59;;;;;;;23.48;17.75;;;15.40;99.90;;;;;;5077523;28;20084;-71
2022/08/23 04:26:24;;;;;;;34.92;21.67;;;15.40;99.90;;;;;;5077621;28;20079;-71
2022/08/23 04:28:50;;;;;;;28.05;20.20;;;15.40;99.90;;;;;;5077658;28;20097;-71
2022/08/23 04:31:18;;;;;;;28.60;20.05;;;15.50;99.90;;;;;;5077738;28;20052;-72
2022/08/23 04:33:43;;;;;;;30.50;21.70;;;15.50;99.90;;;;;;5077313;28;20154;-71
2022/08/23 04:36:09;;;;;;;36.58;25.73;;;15.50;99.90;;;;;;5077599;28;20091;-71
2022/08/23 04:38:34;;;;;;;36.55;22.52;;;15.60;99.90;;;;;;5069055;28;20041;-72
2022/08/23 04:43:44;;;;;;;27.10;19.23;;;15.60;99.90;;;;;;5057183;28;20048;-71
2022/08/23 04:46:13;;;;;;;23.85;17.45;;;15.70;99.90;;;;;;5057158;28;20406;-72
2022/08/23 04:48:39;;;;;;;32.05;21.27;;;15.60;99.90;;;;;;5060094;28;20044;-71
2022/08/23 04:51:04;;;;;;;30.65;20.40;;;15.70;99.90;;;;;;5057270;28;20043;-72
2022/08/23 04:53:33;;;;;;;28.23;19.17;;;15.70;99.90;;;;;;5057452;28;20033;-72
2022/08/23 04:56:01;;;;;;;26.58;19.27;;;15.80;99.90;;;;;;5057008;28;20049;-72
2022/08/23 04:58:30;;;;;;;28.45;19.73;;;15.70;99.90;;;;;;5057340;28;20057;-72
2022/08/23 05:00:57;;;;;;;26.80;20.00;;;15.70;99.90;;;;;;5055862;28;20051;-72
2022/08/23 05:03:23;;;;;;;22.70;17.95;;;15.70;99.90;;;;;;5056973;28;20081;-72
2022/08/23 05:05:51;;;;;;;23.13;17.65;;;15.70;99.90;;;;;;5005463;28;20099;-72
2022/08/23 05:08:17;;;;;;;24.63;19.02;;;15.70;99.90;;;;;;5061005;28;20059;-72
2022/08/23 05:10:43;;;;;;;27.80;20.27;;;15.80;99.90;;;;;;5077156;28;20049;-71
2022/08/23 05:13:08;;;;;;;22.38;17.42;;;15.80;99.90;;;;;;5076868;28;20063;-72
2022/08/23 05:15:34;;;;;;;22.83;18.05;;;15.80;99.90;;;;;;5076979;28;20063;-72
2022/08/23 05:18:00;;;;;;;23.38;18.13;;;15.90;99.90;;;;;;5077007;28;20040;-72
2022/08/23 05:20:26;;;;;;;24.58;17.48;;;15.90;99.90;;;;;;5076775;28;20051;-72
2022/08/23 05:22:51;;;;;;;24.33;19.60;;;16.00;99.90;;;;;;5073573;28;20113;-71
2022/08/23 05:25:17;;;;;;;21.80;17.67;;;16.00;99.90;;;;;;5056717;28;20056;-72
2022/08/23 05:27:43;;;;;;;21.85;17.73;;;16.20;99.90;;;;;;5056388;28;20041;-71
2022/08/23 05:30:10;;;;;;;20.33;16.95;;;16.30;99.90;;;;;;5039153;28;20442;-72
2022/08/23 05:32:35;;;;;;;20.65;16.77;;;16.40;99.90;;;;;;5056538;28;20049;-72
2022/08/23 05:35:01;;;;;;;20.58;16.95;;;16.40;99.90;;;;;;5056608;28;20064;-72
2022/08/23 05:37:27;;;;;;;19.23;16.40;;;16.50;99.90;;;;;;5056616;28;20072;-71
2022/08/23 05:39:52;;;;;;;18.83;15.07;;;16.50;99.90;;;;;;5073407;28;20036;-72
2022/08/23 05:42:18;;;;;;;23.38;16.63;;;16.50;99.90;;;;;;5059500;28;20114;-72
2022/08/23 05:44:44;;;;;;;21.40;16.25;;;16.50;99.90;;;;;;5056625;28;20132;-72
2022/08/23 05:47:13;;;;;;;22.02;16.00;;;16.60;99.90;;;;;;5056415;28;20415;-72
2022/08/23 05:49:39;;;;;;;19.88;15.90;;;16.60;99.90;;;;;;5056227;28;20045;-72
2022/08/23 05:52:07;;;;;;;20.48;14.02;;;16.90;99.90;;;;;;5056705;28;20056;-73
2022/08/23 05:54:34;;;;;;;18.52;15.93;;;17.00;99.90;;;;;;5055929;28;20124;-70
2022/08/23 05:56:59;;;;;;;16.70;15.00;;;17.50;99.90;;;;;;5056082;28;20076;-69
2022/08/23 05:59:25;;;;;;;17.42;15.32;;;18.20;99.90;;;;;;5056048;28;20449;-70
2022/08/23 06:01:51;;;;;;;16.75;13.80;;;19.20;99.90;;;;;;5055856;28;20190;-70
2022/08/23 06:04:16;;;;;;;14.30;11.50;;;20.30;99.90;;;;;;5062071;28;20084;-70
2022/08/23 06:06:43;;;;;;;14.07;11.18;;;21.10;99.90;;;;;;5075806;28;20041;-70
2022/08/23 06:09:13;;;;;;;12.73;10.52;;;21.80;99.90;;;;;;5076033;28;20044;-70
2022/08/23 06:11:38;;;;;;;15.52;10.50;;;22.50;99.90;;;;;;5075834;28;20107;-70
2022/08/23 06:14:07;;;;;;;13.98;8.90;;;23.10;99.90;;;;;;5075791;28;20044;-70
2022/08/23 06:16:36;;;;;;;11.48;8.60;;;23.70;99.90;;;;;;5075181;28;20063;-70
2022/08/23 06:19:03;;;;;;;10.85;8.05;;;23.90;99.90;;;;;;5075319;28;20052;-70
2022/08/23 06:21:30;;;;;;;10.32;8.25;;;24.40;99.90;;;;;;5075617;28;20101;-70
2022/08/23 06:23:56;;;;;;;9.85;7.85;;;24.50;99.90;;;;;;5075279;28;20098;-70
2022/08/23 06:26:30;;;;;;;10.70;7.00;;;25.00;99.90;;;;;;5075229;28;20080;-70
2022/08/23 06:28:58;;;;;;;12.73;8.30;;;25.60;99.90;;;;;;5073303;28;20055;-70
2022/08/23 06:31:44;;;;;;;10.70;7.32;;;25.90;99.90;;;;;;5074870;28;20040;-70
2022/08/23 06:34:25;;;;;;;8.93;7.13;;;26.30;99.90;;;;;;5064707;28;20049;-70
2022/08/23 06:36:53;;;;;;;8.75;6.50;;;26.60;99.90;;;;;;5054619;28;20037;-70
2022/08/23 06:39:22;;;;;;;8.65;6.03;;;27.30;99.90;;;;;;5054707;28;20056;-70
2022/08/23 06:41:48;;;;;;;11.77;6.30;;;27.40;99.70;;;;;;5054942;28;20094;-70
2022/08/23 06:44:14;;;;;;;9.63;6.07;;;27.70;99.90;;;;;;5054546;28;20076;-70
2022/08/23 06:46:41;;;;;;;7.13;5.80;;;27.60;99.90;;;;;;5054490;28;20056;-70
2022/08/23 06:49:07;;;;;;;8.23;6.00;;;27.70;99.50;;;;;;5055856;28;20032;-70
2022/08/23 06:51:39;;;;;;;9.65;5.57;;;27.70;99.00;;;;;;5069349;28;20051;-70
2022/08/23 06:54:08;;;;;;;8.23;4.90;;;27.90;98.90;;;;;;5074571;28;20105;-70
2022/08/23 06:56:35;;;;;;;7.57;5.47;;;27.60;98.20;;;;;;5074240;28;20045;-70
2022/08/23 06:59:04;;;;;;;8.70;5.75;;;26.60;98.30;;;;;;5074041;28;20072;-70
2022/08/23 07:01:41;;;;;;;8.00;5.07;;;25.60;99.10;;;;;;5074236;28;20041;-70
2022/08/23 07:04:08;;;;;;;9.65;5.45;;;24.80;99.70;;;;;;5064932;28;20049;-70
2022/08/23 07:06:34;;;;;;;14.45;6.05;;;24.20;99.90;;;;;;5054282;28;20068;-70
2022/08/23 07:09:00;;;;;;;8.10;5.13;;;23.70;99.90;;;;;;5054377;28;20049;-70
2022/08/23 07:11:30;;;;;;;8.30;5.55;;;23.30;99.90;;;;;;5054511;28;20041;-70
2022/08/23 07:13:56;;;;;;;11.73;6.40;;;23.00;99.90;;;;;;5054647;28;20045;-70
2022/08/23 07:16:22;;;;;;;8.10;5.68;;;22.90;99.90;;;;;;5054361;28;20445;-70
2022/08/23 07:18:51;;;;;;;7.35;5.68;;;22.80;99.90;;;;;;5062900;28;20093;-71
2022/08/23 07:21:18;;;;;;;9.27;5.43;;;22.80;99.90;;;;;;5074480;28;20373;-70
2022/08/23 07:23:44;;;;;;;8.07;5.03;;;22.70;99.90;;;;;;5057727;28;20460;-70
2022/08/23 07:26:12;;;;;;;7.45;4.75;;;22.60;99.90;;;;;;5079524;28;20052;-73
2022/08/23 07:28:38;;;;;;;10.23;5.25;;;22.60;99.90;;;;;;5078678;28;20135;-73
2022/08/23 07:31:20;;;;;;;8.35;4.63;;;22.60;99.90;;;;;;5078669;28;20529;-73
2022/08/23 07:33:46;;;;;;;6.30;4.40;;;22.70;99.90;;;;;;5068647;28;20068;-72
2022/08/23 07:36:16;;;;;;;7.97;4.63;;;22.60;99.90;;;;;;5058754;28;20041;-73
2022/08/23 07:38:43;;;;;;;8.02;4.18;;;22.60;99.90;;;;;;5058517;28;20041;-73
2022/08/23 07:41:10;;;;;;;6.28;4.28;;;22.70;99.90;;;;;;5058242;28;20061;-73
2022/08/23 07:43:36;;;;;;;9.85;4.78;;;22.70;99.90;;;;;;5058550;28;20041;-73
2022/08/23 07:46:02;;;;;;;15.15;4.85;;;22.70;99.90;;;;;;5058446;28;20045;-73
2022/08/23 07:48:28;;;;;;;11.65;3.90;;;22.80;99.90;;;;;;5058836;28;20041;-73
2022/08/23 07:50:58;;;;;;;7.15;3.78;;;22.90;99.90;;;;;;5058482;28;20033;-73
2022/08/23 07:53:25;;;;;;;9.90;4.38;;;23.00;99.90;;;;;;5058119;28;20044;-73
2022/08/23 07:55:51;;;;;;;5.57;3.47;;;23.10;99.90;;;;;;5064280;28;20436;-73
2022/08/23 07:58:17;;;;;;;6.25;3.83;;;23.10;99.90;;;;;;5077604;28;20369;-73
2022/08/23 08:00:43;;;;;;;10.95;4.20;;;23.20;99.90;;;;;;5078571;28;20036;-73
2022/08/23 08:03:10;;;;;;;5.65;3.30;;;23.20;99.90;;;;;;5078233;28;20047;-73
2022/08/23 08:05:36;;;;;;;8.90;4.40;;;23.30;99.90;;;;;;5078055;28;20098;-73
2022/08/23 08:08:03;;;;;;;7.15;3.85;;;23.40;99.90;;;;;;5077868;28;20041;-72
2022/08/23 08:10:29;;;;;;;6.43;3.47;;;23.40;99.90;;;;;;5078094;28;20119;-72
2022/08/23 08:12:55;;;;;;;6.53;2.97;;;23.60;99.90;;;;;;5077618;28;20440;-73
2022/08/23 08:15:21;;;;;;;7.43;3.80;;;24.00;99.90;;;;;;5078068;28;20101;-72
2022/08/23 08:17:47;;;;;;;7.03;3.63;;;24.50;99.90;;;;;;5078161;28;20356;-73
2022/08/23 08:20:14;;;;;;;6.80;3.45;;;25.00;99.90;;;;;;5077541;28;20062;-73
2022/08/23 08:22:40;;;;;;;8.88;3.50;;;25.60;99.90;;;;;;5077569;28;20048;-73
2022/08/23 08:25:07;;;;;;;13.60;3.80;;;26.10;99.90;;;;;;5078067;28;20040;-73
2022/08/23 08:27:33;;;;;;;9.07;3.15;;;26.30;99.30;;;;;;5057680;28;20155;-73
2022/08/23 08:29:59;;;;;;;9.88;3.13;;;26.30;98.80;;;;;;5058041;28;20360;-73
2022/08/23 08:32:24;;;;;;;6.75;3.00;;;26.60;99.40;;;;;;5057789;28;20045;-73
2022/08/23 08:34:50;;;;;;;4.68;2.92;;;26.90;99.20;;;;;;5057462;28;20124;-74
2022/08/23 08:37:15;;;;;;;6.22;2.85;;;27.50;98.80;;;;;;5057659;28;20049;-74
2022/08/23 08:39:44;;;;;;;8.68;3.08;;;28.20;97.80;;;;;;5057489;28;20045;-73
2022/08/23 08:42:28;;;;;;;5.75;2.40;;;28.80;96.50;;;;;;5057095;28;20461;-74
2022/08/23 08:45:22;;;;;;;9.40;2.53;;;29.30;95.10;;;;;;5057609;28;20067;-73
2022/08/23 08:47:52;;;;;;;7.18;2.88;;;29.60;95.00;;;;;;5057931;28;20037;-74
2022/08/23 08:50:25;;;;;;;6.43;2.63;;;29.80;95.00;;;;;;5057347;28;20037;-74
2022/08/23 08:52:52;;;;;;;6.30;2.58;;;29.90;94.50;;;;;;5057405;28;20080;-75
2022/08/23 08:55:24;;;;;;;5.82;2.30;;;30.20;93.60;;;;;;5057979;28;20081;-74
2022/08/23 08:57:53;;;;;;;5.55;2.67;;;29.80;93.90;;;;;;5077193;28;20056;-74
2022/08/23 09:00:26;;;;;;;7.55;2.40;;;29.70;94.10;;;;;;5077637;28;20063;-73
2022/08/23 09:02:51;;;;;;;6.15;2.35;;;29.50;93.60;;;;;;5076428;28;20468;-74
2022/08/23 09:05:31;;;;;;;4.72;2.15;;;29.30;94.10;;;;;;5077160;28;20084;-74
2022/08/23 09:08:42;;;;;;;5.25;2.28;;;29.10;93.70;;;;;;5076984;28;20055;-74
2022/08/23 09:11:57;;;;;;;8.43;2.90;;;28.60;93.00;;;;;;5059479;28;20044;-74
2022/08/23 09:14:40;;;;;;;4.57;2.20;;;28.20;93.30;;;;;;4959499;28;20046;-74
2022/08/23 09:17:39;;;;;;;4.43;2.13;;;28.00;94.30;;;;;;5076425;28;20450;-73
2022/08/23 09:20:06;;;;;;;3.88;1.90;;;27.70;94.50;;;;;;5076820;28;20044;-74
2022/08/23 09:22:40;;;;;;;8.15;2.58;;;27.70;95.40;;;;;;5076499;28;20049;-74
2022/08/23 09:25:10;;;;;;;5.97;2.47;;;27.70;94.90;;;;;;5076378;28;20101;-73
2022/08/23 09:27:40;;;;;;;4.95;2.15;;;27.80;94.40;;;;;;5056702;28;20053;-73
2022/08/23 09:30:07;;;;;;;8.48;2.97;;;27.90;94.20;;;;;;5057067;28;20041;-73
2022/08/23 09:32:36;;;;;;;8.13;2.25;;;28.10;94.00;;;;;;5056746;28;20037;-74
2022/08/23 09:35:20;;;;;;;5.28;2.30;;;28.40;94.20;;;;;;5056707;28;20067;-73
2022/08/23 09:37:45;;;;;;;4.68;2.28;;;28.60;94.10;;;;;;5056340;28;20040;-74
2022/08/23 09:40:24;;;;;;;4.57;2.15;;;28.70;93.90;;;;;;5056552;28;20415;-73
2022/08/23 09:43:06;;;;;;;6.18;2.28;;;28.90;94.00;;;;;;5056133;28;20066;-74
2022/08/23 09:45:35;;;;;;;4.57;2.13;;;29.20;93.40;;;;;;5056395;28;20045;-74
2022/08/23 09:48:01;;;;;;;4.88;2.47;;;29.00;93.60;;;;;;5055691;28;20057;-73
2022/08/23 09:50:30;;;;;;;4.97;2.38;;;28.70;93.50;;;;;;5056344;28;20175;-74
2022/08/23 09:53:01;;;;;;;7.00;2.60;;;28.60;93.00;;;;;;5056035;28;20048;-73
2022/08/23 09:55:30;;;;;;;6.07;2.72;;;28.40;93.60;;;;;;5057309;28;20033;-73
2022/08/23 09:57:58;;;;;;;4.45;2.15;;;28.40;94.30;;;;;;5075650;28;20067;-74
2022/08/23 10:00:27;;;;;;;6.20;2.40;;;28.30;94.30;;;;;;5057734;28;20067;-73
2022/08/23 10:02:56;;;;;;;4.50;2.20;;;28.30;94.20;;;;;;5076157;28;20048;-73
2022/08/23 10:05:37;;;;;;;5.68;2.80;;;28.30;93.90;;;;;;5075787;28;20128;-74
2022/08/23 10:08:03;;;;;;;10.93;2.72;;;28.20;94.10;;;;;;5076257;28;20400;-74
2022/08/23 10:10:50;;;;;;;9.18;2.63;;;28.00;93.10;;;;;;5057947;28;20456;-73
2022/08/23 10:13:16;;;;;;;7.07;2.53;;;27.90;93.90;;;;;;5075512;28;20064;-74
2022/08/23 10:16:30;;;;;;;4.72;2.33;;;28.00;93.70;;;;;;5075865;28;20040;-74
2022/08/23 10:19:19;;;;;;;5.07;2.40;;;28.00;93.50;;;;;;4974722;28;20050;-73
2022/08/23 10:21:56;;;;;;;4.65;1.92;;;28.00;93.10;;;;;;5075424;28;20049;-74
2022/08/23 10:24:37;;;;;;;6.05;2.53;;;27.90;93.10;;;;;;5075428;28;20067;-73
2022/08/23 10:30:26;;;;;;;7.43;2.63;;;28.00;92.90;;;;;;5055465;28;20052;-73
2022/08/23 10:32:57;;;;;;;14.20;2.35;;;28.00;92.90;;;;;;5055585;28;20052;-74
2022/08/23 10:35:56;;;;;;;6.43;2.40;;;28.00;92.50;;;;;;5055326;28;20145;-73
2022/08/23 10:38:56;;;;;;;3.88;2.40;;;28.00;92.50;;;;;;5054976;28;20406;-73
2022/08/23 10:41:33;;;;;;;4.47;1.90;;;28.00;92.30;;;;;;5069968;28;20105;-73
2022/08/23 10:44:24;;;;;;;3.88;1.92;;;28.10;93.30;;;;;;5058139;28;20048;-73
2022/08/23 10:47:01;;;;;;;4.10;1.98;;;28.10;92.70;;;;;;5075058;28;20044;-74
2022/08/23 10:49:27;;;;;;;6.28;2.17;;;28.20;92.70;;;;;;5074764;28;20036;-74
2022/08/23 10:51:56;;;;;;;6.15;2.30;;;28.10;90.60;;;;;;5075735;28;20080;-73
2022/08/23 10:54:33;;;;;;;4.70;2.35;;;28.20;91.50;;;;;;5074986;28;20425;-73
2022/08/23 10:57:04;;;;;;;3.63;1.92;;;28.30;91.80;;;;;;5075680;28;20468;-73
2022/08/23 10:59:31;;;;;;;4.78;2.15;;;28.30;91.60;;;;;;5074596;28;20056;-73
2022/08/23 11:02:18;;;;;;;7.50;3.05;;;28.50;91.90;;;;;;5055278;28;20033;-73
2022/08/23 11:04:52;;;;;;;5.78;2.10;;;28.40;91.20;;;;;;5054817;28;20051;-73
2022/08/23 11:07:27;;;;;;;5.28;2.35;;;28.50;91.60;;;;;;5055029;28;20044;-73
2022/08/23 11:10:28;;;;;;;4.63;2.30;;;28.60;92.80;;;;;;5054760;28;20048;-73
2022/08/23 11:12:58;;;;;;;5.22;2.63;;;28.80;91.10;;;;;;5054961;28;20339;-73
2022/08/23 11:15:54;;;;;;;7.60;2.40;;;28.90;91.70;;;;;;5054734;28;20072;-74
2022/08/23 11:18:25;;;;;;;5.47;2.42;;;29.10;92.30;;;;;;5054774;28;20123;-73
2022/08/23 11:20:52;;;;;;;5.97;2.30;;;29.20;91.10;;;;;;5055983;28;20037;-73
2022/08/23 11:23:37;;;;;;;4.85;2.45;;;29.00;90.70;;;;;;5054856;28;20117;-73
2022/08/23 11:26:06;;;;;;;6.75;2.50;;;29.00;91.40;;;;;;5054606;28;20045;-73
2022/08/23 11:28:44;;;;;;;5.70;2.00;;;29.00;90.50;;;;;;5054386;28;20056;-74
2022/08/23 11:31:10;;;;;;;9.13;2.40;;;29.00;91.70;;;;;;5054953;28;20059;-74
2022/08/23 11:33:50;;;;;;;5.53;2.33;;;29.10;91.10;;;;;;5054892;28;20128;-73
2022/08/23 11:36:22;;;;;;;6.30;2.30;;;29.20;90.80;;;;;;5054568;28;20099;-73
2022/08/23 11:38:48;;;;;;;3.92;1.83;;;29.30;90.60;;;;;;5054457;28;20067;-74
2022/08/23 11:41:21;;;;;;;9.52;3.03;;;29.40;91.50;;;;;;5054556;28;20049;-73
2022/08/23 11:43:56;;;;;;;7.47;2.45;;;29.40;90.90;;;;;;5054768;28;20084;-73
2022/08/23 11:46:24;;;;;;;7.82;2.53;;;29.40;90.70;;;;;;5019571;28;20052;-73
2022/08/23 11:49:19;;;;;;;5.18;2.35;;;29.30;90.90;;;;;;5061320;28;20048;-74
2022/08/23 11:52:22;;;;;;;7.50;2.22;;;29.40;90.80;;;;;;5073932;28;20044;-74
2022/08/23 11:55:10;;;;;;;;;;;29.30;90.30;;;;;;5075098;28;20131;-74
2022/08/23 11:58:00;;;;;;;9.50;2.17;;;29.40;90.70;;;;;;5074721;28;19989;-74
2022/08/23 12:00:49;;;;;;;7.13;2.55;;;29.60;91.00;;;;;;5074458;28;20052;-74
2022/08/23 12:03:35;;;;;;;7.22;2.40;;;29.70;90.70;;;;;;5060785;28;20052;-73
2022/08/23 12:06:36;;;;;;;5.28;2.00;;;29.70;90.60;;;;;;5073925;28;20080;-74
2022/08/23 12:09:10;;;;;;;8.07;2.28;;;29.80;90.70;;;;;;5074507;28;20052;-73
2022/08/23 12:12:21;;;;;;;4.82;2.13;;;29.90;90.80;;;;;;5077914;28;20041;-74
2022/08/23 12:14:53;;;;;;;7.45;2.25;;;30.00;90.30;;;;;;5077864;28;20122;-74
2022/08/23 12:17:24;;;;;;;6.20;2.00;;;30.00;87.00;;;;;;5078001;28;20121;-73
2022/08/23 12:19:58;;;;;;;5.50;1.95;;;30.10;90.10;;;;;;5062000;28;20057;-74
2022/08/23 12:22:28;;;;;;;4.05;1.65;;;30.30;90.20;;;;;;5057742;28;20041;-73
2022/08/23 12:25:05;;;;;;;5.43;2.10;;;30.40;90.40;;;;;;5058397;28;20041;-73
2022/08/23 12:27:45;;;;;;;5.68;2.00;;;30.40;88.80;;;;;;5057884;28;20417;-73
2022/08/23 12:30:21;;;;;;;3.60;1.83;;;30.20;88.30;;;;;;5057491;28;20103;-74
2022/08/23 12:33:20;;;;;;;6.53;2.10;;;30.40;90.50;;;;;;5057548;28;20424;-73
2022/08/23 12:36:31;;;;;;;8.73;1.98;;;30.50;89.40;;;;;;5077120;28;20040;-73
2022/08/23 12:39:07;;;;;;;5.82;1.95;;;30.80;90.40;;;;;;5077449;28;20056;-74
2022/08/23 12:41:58;;;;;;;6.35;2.10;;;31.00;88.70;;;;;;5077368;28;20048;-73
2022/08/23 12:44:27;;;;;;;4.32;1.75;;;31.00;86.40;;;;;;5077774;28;20036;-74
2022/08/23 12:46:53;;;;;;;3.33;1.95;;;30.80;89.70;;;;;;5077592;28;20097;-74
2022/08/23 12:49:37;;;;;;;4.53;2.05;;;30.80;88.90;;;;;;5076759;28;20407;-74
2022/08/23 12:52:11;;;;;;;6.20;1.92;;;30.90;88.30;;;;;;5077548;28;20032;-74
2022/08/23 12:54:41;;;;;;;8.55;2.30;;;30.80;86.50;;;;;;5077326;28;20044;-74
2022/08/23 12:57:29;;;;;;;5.22;1.73;;;31.00;90.00;;;;;;5077172;28;20053;-73
2022/08/23 13:00:12;;;;;;;6.35;2.15;;;31.40;90.20;;;;;;5077403;28;20376;-74
2022/08/23 13:02:41;;;;;;;6.43;2.08;;;31.60;89.20;;;;;;5076868;28;20360;-74
2022/08/23 13:05:15;;;;;;;4.85;1.83;;;31.80;88.10;;;;;;5076659;28;20040;-73
2022/08/23 13:07:41;;;;;;;4.78;1.73;;;31.90;89.10;;;;;;5072759;28;20037;-74
2022/08/23 13:10:08;;;;;;;4.93;2.28;;;32.10;88.50;;;;;;5057000;28;20045;-74
2022/08/23 13:12:35;;;;;;;6.07;1.63;;;32.30;88.30;;;;;;5058967;28;20054;-74